Flag for Morocco

Past Weather in 31°04'47.8"N, 4°00'37.4"W, Morocco — Yesterday and Last 2 Weeks

Currently: 63 °F. Clear. (Weather station: Ouarzazate, Morocco). See more current weather

Past Weather in 31°04'47.8"N, 4°00'37.4"W — Graph

°F

31°04'47.8"N, 4°00'37.4"W Temperature Yesterday

Maximum temperature yesterday: 64 °F (at 3:00 pm)
Minimum temperature yesterday: 48 °F (at 8:00 am)
Average temperature yesterday: 54 °F

High & Low Weather Summary for the Past Weeks

 TemperatureHumidityPressure
High82 °F (Feb 16, 4:00 pm)58% (Feb 19, 7:00 am)30.48 "Hg (Feb 19, 7:00 am)
Low39 °F (Feb 28, 5:00 am)1% (Feb 16, 4:00 pm)29.89 "Hg (Feb 26, 4:00 pm)
Average61 °F21%30.19 "Hg
* Reported Feb 13 7:00 pm — Feb 28 7:00 pm, 31°04'47.8"N, 4°00'37.4"W. Weather by CustomWeather, © 2024

Note: Actual official high and low records may vary slightly from our data, if they occured in-between our weather recording intervals... More about our weather records

31°04'47.8"N, 4°00'37.4"W Weather History for the Previous 24 Hours

Scroll right to see more
 ConditionsComfort  
Time TempWeatherWind HumidityBarometerVisibility
7:00 pm
Wed, Feb 28
66 °FClear.24 mph8%30.04 "Hg10 mi
6:00 pm68 °FSunny.24 mph7%30.04 "Hg10 mi
5:00 pm70 °FSunny.25 mph6%30.04 "Hg10 mi
4:00 pm70 °FSunny.29 mph5%30.04 "Hg10 mi
3:00 pm70 °FSunny.29 mph5%30.07 "Hg10 mi
2:00 pm70 °FSunny.28 mph5%30.07 "Hg10 mi
1:00 pm66 °FPassing clouds.22 mph4%30.09 "HgN/A
12:00 pm66 °FSunny.23 mph1%30.12 "Hg10 mi
11:00 am61 °FSunny.29 mph1%30.12 "Hg10 mi
10:00 am57 °FSunny.9 mph5%30.12 "Hg10 mi
9:00 am46 °FSunny.14 mph10%30.09 "Hg10 mi
8:00 am46 °FSunny.15 mph10%30.09 "Hg10 mi
7:00 am46 °FSunny.17 mph9%30.09 "Hg10 mi
6:00 am45 °FClear.14 mph10%30.09 "Hg10 mi
5:00 am39 °FClear.5 mph28%30.07 "Hg10 mi
4:00 am43 °FClear.5 mph29%30.07 "Hg10 mi
3:00 am41 °FClear.3 mph26%30.09 "Hg10 mi
2:00 am41 °FClear.5 mph26%30.09 "Hg10 mi
1:00 am43 °FClear.7 mph29%30.09 "Hg10 mi
12:00 am50 °FClear.9 mph22%30.09 "Hg10 mi
11:00 pm
Tue, Feb 27
50 °FClear.10 mph25%30.09 "Hg10 mi
10:00 pm50 °FClear.9 mph25%30.07 "Hg10 mi
9:00 pm50 °FPassing clouds.16 mph28%30.04 "HgN/A
8:00 pm52 °FPassing clouds.22 mph26%30.04 "HgN/A
Weather by CustomWeather, © 2024

See weather overview